Time;durP1;ratioP1;P1;durP2;ratioP2;P2;SDS_P1;SDS_P2;PMS_P1;PMS_P2;Temp;Humidity;BMP_temperature;BMP_pressure;BME280_temperature;BME280_humidity;BME280_pressure;Samples;Min_cycle;Max_cycle;Signal;HPM_P1;HPM_P2
2023/10/14 00:00:55;;;;;;;5.97;3.60;;;;;;;;;;5047543;28;21064;-53
2023/10/14 00:03:27;;;;;;;7.67;4.37;;;;;;;;;;5047382;28;20515;-53
2023/10/14 00:05:54;;;;;;;5.20;3.83;;;;;;;;;;5049573;28;20445;-54
2023/10/14 00:08:24;;;;;;;6.37;3.57;;;;;;;;;;5049390;28;20507;-55
2023/10/14 00:10:52;;;;;;;6.43;4.40;;;;;;;;;;5046744;28;21007;-53
2023/10/14 00:13:19;;;;;;;6.60;4.40;;;;;;;;;;5039273;28;20972;-52
2023/10/14 00:15:46;;;;;;;6.23;3.50;;;;;;;;;;5045739;28;20450;-53
2023/10/14 00:18:14;;;;;;;7.17;3.70;;;;;;;;;;5049470;28;20678;-50
2023/10/14 00:20:42;;;;;;;5.43;3.97;;;;;;;;;;5048859;28;20561;-53
2023/10/14 00:23:11;;;;;;;5.20;4.37;;;;;;;;;;5049390;28;20444;-54
2023/10/14 00:25:39;;;;;;;7.00;4.70;;;;;;;;;;5047988;28;20817;-55
2023/10/14 00:28:12;;;;;;;6.83;3.97;;;;;;;;;;5048442;28;20471;-53
2023/10/14 00:30:40;;;;;;;8.47;5.00;;;;;;;;;;5056880;28;20567;-53
2023/10/14 00:33:08;;;;;;;6.43;4.20;;;;;;;;;;5071093;28;20457;-54
2023/10/14 00:35:39;;;;;;;7.30;4.50;;;;;;;;;;5072664;28;20466;-53
2023/10/14 00:38:12;;;;;;;6.00;4.03;;;;;;;;;;5073153;28;20440;-53
2023/10/14 00:40:41;;;;;;;9.50;4.40;;;;;;;;;;5069757;28;20495;-55
2023/10/14 00:43:08;;;;;;;4.73;3.90;;;;;;;;;;5067089;28;20448;-53
2023/10/14 00:45:43;;;;;;;11.80;7.53;;;;;;;;;;5071266;28;21031;-53
2023/10/14 00:48:13;;;;;;;5.93;4.60;;;;;;;;;;5068357;28;20470;-53
2023/10/14 00:50:41;;;;;;;5.33;4.67;;;;;;;;;;5071656;28;20472;-52
2023/10/14 00:53:10;;;;;;;6.40;4.10;;;;;;;;;;5068821;28;20449;-53
2023/10/14 00:55:52;;;;;;;5.60;4.13;;;;;;;;;;5066485;28;20511;-53
2023/10/14 00:58:23;;;;;;;4.63;3.13;;;;;;;;;;5072242;28;20928;-53
2023/10/14 01:01:00;;;;;;;5.43;4.10;;;;;;;;;;5068524;28;20472;-53
2023/10/14 01:03:31;;;;;;;4.90;3.53;;;;;;;;;;5072520;28;20531;-52
2023/10/14 01:06:06;;;;;;;6.83;5.07;;;;;;;;;;5071865;28;20535;-54
2023/10/14 01:08:38;;;;;;;4.97;3.43;;;;;;;;;;5072010;28;20444;-53
2023/10/14 01:11:07;;;;;;;4.73;3.90;;;;;;;;;;5069258;28;20484;-53
2023/10/14 01:13:34;;;;;;;6.50;3.90;;;;;;;;;;5072004;28;20453;-53
2023/10/14 01:16:08;;;;;;;7.43;5.33;;;;;;;;;;5072696;28;20444;-53
2023/10/14 01:18:39;;;;;;;7.83;4.17;;;;;;;;;;5072172;28;20448;-53
2023/10/14 01:21:07;;;;;;;5.40;4.10;;;;;;;;;;5071695;28;20538;-53
2023/10/14 01:23:37;;;;;;;7.13;4.30;;;;;;;;;;5071867;28;20467;-52
2023/10/14 01:26:05;;;;;;;5.20;3.90;;;;;;;;;;5072260;28;20509;-53
2023/10/14 01:28:33;;;;;;;8.00;4.10;;;;;;;;;;5067124;28;20453;-53
2023/10/14 01:31:31;;;;;;;4.70;3.90;;;;;;;;;;5063292;28;20997;-53
2023/10/14 01:33:58;;;;;;;4.20;3.43;;;;;;;;;;5067043;28;20865;-53
2023/10/14 01:36:27;;;;;;;6.27;4.40;;;;;;;;;;5071644;28;20449;-55
2023/10/14 01:38:59;;;;;;;7.70;4.67;;;;;;;;;;5070910;28;20962;-53
2023/10/14 01:41:29;;;;;;;8.60;4.53;;;;;;;;;;5069276;28;20890;-53
2023/10/14 01:43:59;;;;;;;4.80;4.20;;;;;;;;;;5070561;28;20510;-53
2023/10/14 01:46:27;;;;;;;5.63;3.80;;;;;;;;;;5071683;28;20475;-53
2023/10/14 01:48:55;;;;;;;5.40;4.27;;;;;;;;;;5071032;28;20445;-53
2023/10/14 01:51:25;;;;;;;5.10;3.53;;;;;;;;;;5071321;28;20480;-53
2023/10/14 01:53:52;;;;;;;5.27;3.73;;;;;;;;;;5070802;28;20514;-54
2023/10/14 01:56:21;;;;;;;6.00;4.43;;;;;;;;;;5071738;28;20498;-53
2023/10/14 01:58:57;;;;;;;5.60;3.70;;;;;;;;;;5069774;28;20444;-53
2023/10/14 02:01:24;;;;;;;6.23;4.33;;;;;;;;;;5070827;28;20852;-50
2023/10/14 02:03:51;;;;;;;10.23;4.13;;;;;;;;;;5067204;28;20465;-53
2023/10/14 02:06:26;;;;;;;5.33;3.93;;;;;;;;;;5070710;28;20506;-54
2023/10/14 02:08:54;;;;;;;6.80;4.53;;;;;;;;;;5070773;28;20452;-53
2023/10/14 02:11:24;;;;;;;5.80;3.70;;;;;;;;;;5063857;28;20461;-53
2023/10/14 02:13:51;;;;;;;5.57;3.53;;;;;;;;;;5069073;28;20539;-55
2023/10/14 02:16:24;;;;;;;5.03;3.93;;;;;;;;;;5071196;28;20870;-54
2023/10/14 02:18:51;;;;;;;6.60;4.40;;;;;;;;;;5069725;28;20521;-53
2023/10/14 02:21:19;;;;;;;7.67;4.70;;;;;;;;;;5068385;28;20510;-53
2023/10/14 02:23:47;;;;;;;6.87;4.10;;;;;;;;;;5069017;28;20436;-56
2023/10/14 02:26:17;;;;;;;6.40;4.10;;;;;;;;;;5066885;28;20459;-52
2023/10/14 02:28:46;;;;;;;4.90;3.70;;;;;;;;;;5068559;28;20566;-53
2023/10/14 02:31:18;;;;;;;5.87;4.17;;;;;;;;;;5058432;28;20487;-54
2023/10/14 02:33:46;;;;;;;5.33;4.60;;;;;;;;;;5069934;28;20932;-53
2023/10/14 02:36:17;;;;;;;5.87;3.80;;;;;;;;;;5067126;28;20530;-53
2023/10/14 02:38:46;;;;;;;5.57;4.00;;;;;;;;;;5068494;28;20445;-54
2023/10/14 02:41:16;;;;;;;4.00;2.70;;;;;;;;;;5068067;28;20464;-52
2023/10/14 02:43:48;;;;;;;6.27;3.53;;;;;;;;;;5070355;28;21004;-53
2023/10/14 02:46:20;;;;;;;4.27;3.70;;;;;;;;;;5064737;28;20447;-53
2023/10/14 02:49:02;;;;;;;6.43;4.07;;;;;;;;;;5068386;28;20462;-54
2023/10/14 02:51:42;;;;;;;6.27;3.90;;;;;;;;;;5070439;28;20471;-54
2023/10/14 02:54:15;;;;;;;6.33;4.53;;;;;;;;;;5064891;28;20452;-54
2023/10/14 02:56:55;;;;;;;6.90;3.70;;;;;;;;;;5065237;28;20828;-53
2023/10/14 02:59:36;;;;;;;5.93;3.63;;;;;;;;;;5070379;28;20454;-53
2023/10/14 03:02:15;;;;;;;5.13;3.47;;;;;;;;;;5069242;28;20833;-53
2023/10/14 03:04:49;;;;;;;4.83;3.73;;;;;;;;;;5067770;28;21088;-53
2023/10/14 03:07:23;;;;;;;5.17;3.40;;;;;;;;;;5070628;28;20448;-53
2023/10/14 03:09:52;;;;;;;9.50;4.40;;;;;;;;;;5068495;28;20509;-53
2023/10/14 03:12:21;;;;;;;7.30;4.03;;;;;;;;;;5068378;28;20479;-53
2023/10/14 03:14:49;;;;;;;5.97;4.10;;;;;;;;;;5069794;28;20452;-53
2023/10/14 03:17:24;;;;;;;8.30;4.33;;;;;;;;;;5070024;28;20464;-53
2023/10/14 03:19:53;;;;;;;4.90;3.87;;;;;;;;;;5070078;28;20577;-53
2023/10/14 03:22:25;;;;;;;7.83;4.00;;;;;;;;;;5069846;28;20528;-53
2023/10/14 03:24:53;;;;;;;5.27;4.30;;;;;;;;;;5069558;28;20529;-53
2023/10/14 03:27:20;;;;;;;7.20;3.23;;;;;;;;;;5064717;28;20449;-53
2023/10/14 03:29:54;;;;;;;6.83;3.67;;;;;;;;;;5062856;28;20446;-53
2023/10/14 03:32:32;;;;;;;5.23;3.57;;;;;;;;;;5068922;28;20484;-53
2023/10/14 03:35:03;;;;;;;5.70;4.10;;;;;;;;;;5068067;28;20444;-54
2023/10/14 03:37:35;;;;;;;7.37;4.40;;;;;;;;;;5069741;28;20478;-53
2023/10/14 03:42:54;;;;;;;5.20;4.30;;;;;;;;;;5068164;28;20950;-53
2023/10/14 03:45:22;;;;;;;5.00;3.43;;;;;;;;;;5063077;28;20536;-54
2023/10/14 03:47:52;;;;;;;6.50;3.90;;;;;;;;;;5068576;28;20569;-53
2023/10/14 03:50:23;;;;;;;5.40;4.03;;;;;;;;;;5069656;28;20525;-53
2023/10/14 03:52:53;;;;;;;5.60;3.90;;;;;;;;;;5069570;28;20563;-53
2023/10/14 03:55:24;;;;;;;6.53;3.90;;;;;;;;;;5069996;28;20448;-53
2023/10/14 03:57:58;;;;;;;5.60;3.80;;;;;;;;;;5067353;28;20453;-53
2023/10/14 04:00:36;;;;;;;4.30;3.60;;;;;;;;;;5069695;28;20471;-50
2023/10/14 04:03:11;;;;;;;4.80;3.47;;;;;;;;;;5073009;28;20859;-53
2023/10/14 04:05:38;;;;;;;5.23;3.63;;;;;;;;;;5067483;28;20448;-55
2023/10/14 04:08:06;;;;;;;4.07;3.27;;;;;;;;;;5072999;28;20926;-53
2023/10/14 04:10:38;;;;;;;5.70;3.57;;;;;;;;;;5073053;28;20547;-54
2023/10/14 04:13:12;;;;;;;7.03;4.20;;;;;;;;;;5072728;28;20475;-54
2023/10/14 04:15:47;;;;;;;5.77;3.67;;;;;;;;;;5072807;28;20964;-53
2023/10/14 04:18:24;;;;;;;4.93;3.40;;;;;;;;;;5063787;28;20475;-55
2023/10/14 04:21:03;;;;;;;6.20;4.07;;;;;;;;;;5071488;28;20491;-53
2023/10/14 04:23:30;;;;;;;5.87;3.87;;;;;;;;;;5072720;28;20493;-53
2023/10/14 04:26:11;;;;;;;6.70;3.80;;;;;;;;;;5070088;28;20530;-53
2023/10/14 04:28:53;;;;;;;6.50;3.30;;;;;;;;;;5072847;28;20455;-53
2023/10/14 04:31:26;;;;;;;5.00;3.80;;;;;;;;;;5071726;28;20525;-55
2023/10/14 04:33:55;;;;;;;5.63;3.70;;;;;;;;;;5070916;28;20578;-53
2023/10/14 04:36:43;;;;;;;5.90;3.80;;;;;;;;;;5073388;28;20468;-53
2023/10/14 04:39:19;;;;;;;5.03;3.43;;;;;;;;;;5072720;28;20444;-53
2023/10/14 04:42:21;;;;;;;7.30;4.23;;;;;;;;;;5072204;28;20464;-54
2023/10/14 04:44:54;;;;;;;6.20;4.43;;;;;;;;;;5071486;28;20441;-55
2023/10/14 04:47:27;;;;;;;6.27;4.00;;;;;;;;;;5071567;28;20534;-52
2023/10/14 04:49:57;;;;;;;5.50;3.17;;;;;;;;;;5066111;28;20467;-53
2023/10/14 04:52:26;;;;;;;4.60;3.90;;;;;;;;;;5072518;28;21048;-53
2023/10/14 04:54:54;;;;;;;5.40;4.10;;;;;;;;;;5070027;28;20543;-53
2023/10/14 04:57:23;;;;;;;6.10;4.20;;;;;;;;;;5067370;28;20463;-53
2023/10/14 04:59:57;;;;;;;6.03;4.50;;;;;;;;;;5072099;28;20444;-53
2023/10/14 05:02:30;;;;;;;5.60;4.00;;;;;;;;;;5070051;28;20444;-53
2023/10/14 05:05:00;;;;;;;6.00;3.43;;;;;;;;;;5067802;28;21004;-53
2023/10/14 05:07:28;;;;;;;5.43;3.53;;;;;;;;;;5075070;28;20530;-53
2023/10/14 05:10:06;;;;;;;6.20;4.63;;;;;;;;;;5072430;28;20452;-52
2023/10/14 05:12:40;;;;;;;6.93;4.57;;;;;;;;;;5064966;28;20551;-54
2023/10/14 05:15:19;;;;;;;6.30;3.67;;;;;;;;;;5065754;28;20509;-54
2023/10/14 05:17:49;;;;;;;8.67;4.07;;;;;;;;;;5070469;28;20448;-54
2023/10/14 05:20:23;;;;;;;5.33;3.70;;;;;;;;;;5069102;28;20472;-53
2023/10/14 05:22:52;;;;;;;4.90;3.70;;;;;;;;;;5071462;28;20445;-52
2023/10/14 05:25:27;;;;;;;4.90;4.20;;;;;;;;;;5071441;28;20483;-54
2023/10/14 05:28:04;;;;;;;7.30;3.57;;;;;;;;;;5068657;28;20571;-54
2023/10/14 05:30:34;;;;;;;5.43;3.60;;;;;;;;;;5085589;23;20480;-91
2023/10/14 05:33:06;;;;;;;7.50;4.10;;;;;;;;;;5056572;28;20547;-91
2023/10/14 05:35:39;;;;;;;5.20;3.40;;;;;;;;;;5055463;28;20453;-91
2023/10/14 05:38:09;;;;;;;4.80;3.23;;;;;;;;;;5063703;28;20466;-90
2023/10/14 05:40:37;;;;;;;6.23;3.83;;;;;;;;;;5054819;28;20640;-91
2023/10/14 05:43:06;;;;;;;8.93;3.93;;;;;;;;;;5059014;28;20437;-91
2023/10/14 05:45:34;;;;;;;4.70;3.77;;;;;;;;;;5055204;28;20450;-91
2023/10/14 05:48:03;;;;;;;6.47;4.37;;;;;;;;;;5058993;28;20558;-91
2023/10/14 05:50:30;;;;;;;8.33;4.80;;;;;;;;;;5060245;28;20445;-92
2023/10/14 05:53:01;;;;;;;6.97;5.03;;;;;;;;;;5058394;28;21020;-91
2023/10/14 05:55:29;;;;;;;6.23;4.40;;;;;;;;;;5057371;28;20449;-91
2023/10/14 05:57:58;;;;;;;5.97;4.10;;;;;;;;;;5061786;28;20480;-91
2023/10/14 06:00:27;;;;;;;5.13;4.40;;;;;;;;;;5062293;28;20485;-91
2023/10/14 06:02:55;;;;;;;5.17;3.77;;;;;;;;;;5060346;28;20442;-91
2023/10/14 06:05:22;;;;;;;5.83;5.23;;;;;;;;;;5061649;28;20438;-91
2023/10/14 06:07:50;;;;;;;7.70;3.83;;;;;;;;;;5050932;28;20470;-91
2023/10/14 06:10:22;;;;;;;5.50;4.23;;;;;;;;;;5059390;28;20481;-92
2023/10/14 06:12:53;;;;;;;8.90;4.60;;;;;;;;;;5062672;28;20462;-91
2023/10/14 06:15:20;;;;;;;7.97;4.97;;;;;;;;;;5061643;28;20477;-91
2023/10/14 06:17:48;;;;;;;5.67;5.10;;;;;;;;;;5063075;28;21002;-91
2023/10/14 06:20:20;;;;;;;5.03;3.67;;;;;;;;;;5062304;28;20445;-91
2023/10/14 06:22:47;;;;;;;6.33;4.17;;;;;;;;;;5061460;28;20434;-92
2023/10/14 06:25:16;;;;;;;7.53;4.13;;;;;;;;;;5062474;28;20840;-92
2023/10/14 06:27:46;;;;;;;22.57;15.20;;;;;;;;;;5057441;28;20498;-91
2023/10/14 06:30:20;;;;;;;7.63;4.97;;;;;;;;;;5054011;28;20445;-91
2023/10/14 06:32:48;;;;;;;6.93;5.13;;;;;;;;;;5055161;28;20489;-91
2023/10/14 06:35:17;;;;;;;7.50;4.20;;;;;;;;;;5053104;28;20540;-91
2023/10/14 06:37:45;;;;;;;6.73;5.70;;;;;;;;;;5052382;28;20474;-91
2023/10/14 06:40:14;;;;;;;10.30;7.20;;;;;;;;;;5053263;28;20456;-91
2023/10/14 06:42:43;;;;;;;7.17;6.20;;;;;;;;;;5052018;28;20445;-91
2023/10/14 06:45:14;;;;;;;6.90;4.70;;;;;;;;;;5054414;28;20967;-90
2023/10/14 06:47:47;;;;;;;7.70;4.40;;;;;;;;;;5051241;28;20489;-91
2023/10/14 06:50:15;;;;;;;5.80;3.93;;;;;;;;;;5051113;28;21011;-92
2023/10/14 06:52:42;;;;;;;8.20;6.67;;;;;;;;;;5060913;28;20860;-91
2023/10/14 06:55:09;;;;;;;7.73;5.97;;;;;;;;;;5058679;28;20807;-91
2023/10/14 06:57:37;;;;;;;10.57;6.33;;;;;;;;;;5060544;28;20494;-91
2023/10/14 07:00:11;;;;;;;8.73;6.03;;;;;;;;;;5044205;28;20446;-90
2023/10/14 07:02:40;;;;;;;6.80;5.10;;;;;;;;;;5049960;28;20456;-89
2023/10/14 07:05:10;;;;;;;7.07;4.93;;;;;;;;;;5050076;28;20454;-89
2023/10/14 07:07:38;;;;;;;6.43;4.53;;;;;;;;;;5051665;28;20879;-90
2023/10/14 07:10:06;;;;;;;5.57;3.90;;;;;;;;;;5057615;28;20567;-89
2023/10/14 07:12:37;;;;;;;8.37;4.73;;;;;;;;;;5051533;28;20457;-88
2023/10/14 07:15:06;;;;;;;9.00;6.77;;;;;;;;;;5050323;28;20544;-88
2023/10/14 07:17:34;;;;;;;8.77;6.67;;;;;;;;;;5049987;28;20532;-89
2023/10/14 07:20:07;;;;;;;9.93;6.50;;;;;;;;;;5050673;28;20445;-89
2023/10/14 07:22:34;;;;;;;8.40;7.03;;;;;;;;;;5046486;28;20453;-89
2023/10/14 07:25:03;;;;;;;7.67;6.27;;;;;;;;;;5045507;28;20426;-89
2023/10/14 07:27:34;;;;;;;9.87;5.80;;;;;;;;;;5047465;28;20460;-90
2023/10/14 07:30:01;;;;;;;6.47;4.63;;;;;;;;;;5042681;28;20495;-91
2023/10/14 07:32:30;;;;;;;8.60;5.20;;;;;;;;;;5036123;28;20454;-91
2023/10/14 07:35:02;;;;;;;23.20;15.30;;;;;;;;;;5048413;28;20474;-90
2023/10/14 07:37:33;;;;;;;24.07;17.70;;;;;;;;;;5055362;28;20471;-90
2023/10/14 07:40:04;;;;;;;14.40;10.60;;;;;;;;;;5059649;28;20460;-91
2023/10/14 07:42:32;;;;;;;11.23;9.10;;;;;;;;;;5047926;28;20449;-91
2023/10/14 07:44:59;;;;;;;9.23;7.80;;;;;;;;;;5088403;28;20459;-91
2023/10/14 07:47:29;;;;;;;7.40;6.13;;;;;;;;;;5058759;28;20454;-89
2023/10/14 07:49:57;;;;;;;10.00;6.60;;;;;;;;;;5053936;28;20788;-91
2023/10/14 07:52:25;;;;;;;6.70;4.23;;;;;;;;;;5051433;28;20477;-90
2023/10/14 07:54:54;;;;;;;5.97;4.73;;;;;;;;;;5048017;28;20473;-90
2023/10/14 07:57:21;;;;;;;8.33;4.77;;;;;;;;;;5054252;28;20538;-90
2023/10/14 07:59:50;;;;;;;10.10;5.23;;;;;;;;;;5056850;28;20442;-90
2023/10/14 08:02:18;;;;;;;5.10;4.23;;;;;;;;;;5055160;28;20457;-90
2023/10/14 08:04:46;;;;;;;4.40;3.23;;;;;;;;;;5052096;28;20444;-90
2023/10/14 08:07:14;;;;;;;6.77;4.43;;;;;;;;;;5053857;28;20495;-91
2023/10/14 08:09:41;;;;;;;6.70;4.20;;;;;;;;;;5052578;28;20453;-89
2023/10/14 08:12:10;;;;;;;12.70;8.57;;;;;;;;;;5045913;28;20500;-89
2023/10/14 08:14:37;;;;;;;10.93;8.17;;;;;;;;;;5045173;28;20887;-89
2023/10/14 08:17:11;;;;;;;8.77;7.20;;;;;;;;;;5052873;28;21023;-90
2023/10/14 08:19:38;;;;;;;10.40;7.30;;;;;;;;;;5053240;28;20471;-88
2023/10/14 08:22:08;;;;;;;9.07;7.33;;;;;;;;;;5052579;28;20915;-88
2023/10/14 08:24:35;;;;;;;8.67;6.00;;;;;;;;;;5052243;28;20494;-88
2023/10/14 08:27:02;;;;;;;9.90;7.20;;;;;;;;;;5052898;28;20441;-89
2023/10/14 08:29:32;;;;;;;8.30;5.90;;;;;;;;;;5052924;28;20471;-88
2023/10/14 08:31:59;;;;;;;8.50;4.90;;;;;;;;;;5051918;28;20453;-88
2023/10/14 08:34:27;;;;;;;7.53;5.40;;;;;;;;;;5053950;28;20480;-88
2023/10/14 08:36:56;;;;;;;8.10;5.40;;;;;;;;;;5053776;28;20514;-87
2023/10/14 08:39:24;;;;;;;5.13;4.50;;;;;;;;;;5054215;28;20894;-87
2023/10/14 08:41:54;;;;;;;10.60;5.87;;;;;;;;;;5058668;28;20904;-87
2023/10/14 08:44:24;;;;;;;9.20;6.27;;;;;;;;;;5054769;28;20936;-87
2023/10/14 08:46:53;;;;;;;5.87;4.80;;;;;;;;;;5052888;28;20475;-87
2023/10/14 08:49:25;;;;;;;6.70;4.87;;;;;;;;;;5052630;28;20499;-87
2023/10/14 08:51:54;;;;;;;7.10;4.40;;;;;;;;;;5053046;28;20490;-87
2023/10/14 08:54:23;;;;;;;7.13;4.90;;;;;;;;;;5053098;28;20465;-87
2023/10/14 08:56:51;;;;;;;5.53;4.80;;;;;;;;;;5054426;28;21015;-88
2023/10/14 08:59:18;;;;;;;7.17;5.13;;;;;;;;;;5054048;28;21122;-87
2023/10/14 09:01:47;;;;;;;5.63;4.40;;;;;;;;;;5053631;28;20433;-87
2023/10/14 09:04:26;;;;;;;5.80;4.17;;;;;;;;;;5053737;28;20430;-87
2023/10/14 09:06:54;;;;;;;5.30;4.20;;;;;;;;;;5053363;28;21009;-87
2023/10/14 09:09:23;;;;;;;5.73;4.60;;;;;;;;;;5053072;28;20465;-87
2023/10/14 09:11:51;;;;;;;6.93;4.00;;;;;;;;;;5053113;28;20469;-87
2023/10/14 09:14:19;;;;;;;5.50;4.43;;;;;;;;;;5052880;28;20567;-87
2023/10/14 09:16:49;;;;;;;4.40;4.00;;;;;;;;;;5053121;28;20452;-87
2023/10/14 09:19:18;;;;;;;6.80;4.33;;;;;;;;;;5047771;28;20472;-88
2023/10/14 09:21:45;;;;;;;6.73;5.17;;;;;;;;;;5052733;28;20487;-87
2023/10/14 09:24:13;;;;;;;6.90;5.00;;;;;;;;;;5046959;28;20441;-88
2023/10/14 09:26:43;;;;;;;8.80;5.00;;;;;;;;;;5053414;28;20811;-87
2023/10/14 09:29:11;;;;;;;7.67;5.23;;;;;;;;;;5052033;28;20465;-87
2023/10/14 09:31:39;;;;;;;6.90;5.53;;;;;;;;;;5051754;28;20947;-87
2023/10/14 09:34:08;;;;;;;7.23;6.10;;;;;;;;;;5052480;28;20477;-87
2023/10/14 09:36:43;;;;;;;6.07;4.40;;;;;;;;;;5052426;28;20438;-87
2023/10/14 09:39:13;;;;;;;9.10;4.73;;;;;;;;;;5052863;28;20471;-87
2023/10/14 09:41:41;;;;;;;7.40;5.10;;;;;;;;;;5052753;28;20466;-87
2023/10/14 09:44:10;;;;;;;7.63;5.00;;;;;;;;;;5052560;28;20437;-87
2023/10/14 09:46:40;;;;;;;6.03;4.80;;;;;;;;;;5053180;28;20524;-87
2023/10/14 09:49:10;;;;;;;6.10;4.50;;;;;;;;;;5052006;28;20473;-88
2023/10/14 09:51:39;;;;;;;6.50;5.03;;;;;;;;;;5052361;28;20461;-87
2023/10/14 09:54:09;;;;;;;6.63;4.87;;;;;;;;;;5048577;28;20504;-87
2023/10/14 09:56:40;;;;;;;6.63;4.13;;;;;;;;;;5045696;28;20445;-87
2023/10/14 09:59:07;;;;;;;5.97;4.50;;;;;;;;;;5049241;28;20481;-87
2023/10/14 10:01:35;;;;;;;5.73;5.00;;;;;;;;;;5042539;28;20445;-87
2023/10/14 10:04:05;;;;;;;7.43;4.37;;;;;;;;;;5050435;28;20442;-86
2023/10/14 10:06:36;;;;;;;6.77;4.33;;;;;;;;;;5050413;28;20446;-86
2023/10/14 10:09:22;;;;;;;6.50;4.97;;;;;;;;;;5051602;28;20457;-87
2023/10/14 10:11:51;;;;;;;6.47;5.10;;;;;;;;;;5050884;28;20453;-87
2023/10/14 10:14:19;;;;;;;6.00;5.27;;;;;;;;;;5052220;28;20516;-87
2023/10/14 10:16:49;;;;;;;6.47;5.37;;;;;;;;;;5062082;28;20890;-87
2023/10/14 10:19:16;;;;;;;6.93;4.73;;;;;;;;;;5048466;28;20892;-87
2023/10/14 10:22:04;;;;;;;11.47;5.23;;;;;;;;;;5051906;28;20473;-87
2023/10/14 10:24:38;;;;;;;6.47;5.73;;;;;;;;;;5052332;28;20448;-87
2023/10/14 10:27:10;;;;;;;5.87;4.70;;;;;;;;;;5052903;28;20438;-87
2023/10/14 10:29:43;;;;;;;5.83;4.97;;;;;;;;;;5052918;28;20988;-87
2023/10/14 10:32:12;;;;;;;4.83;4.13;;;;;;;;;;5051738;28;20873;-87
2023/10/14 10:34:55;;;;;;;8.13;4.23;;;;;;;;;;5052003;28;20477;-87
2023/10/14 10:37:25;;;;;;;6.83;4.33;;;;;;;;;;5046806;28;20469;-87
2023/10/14 10:39:54;;;;;;;7.90;5.87;;;;;;;;;;5052187;28;20437;-87
2023/10/14 10:42:21;;;;;;;6.83;5.07;;;;;;;;;;5052019;28;20519;-87
2023/10/14 10:44:49;;;;;;;6.13;4.67;;;;;;;;;;5051424;28;20859;-87
2023/10/14 10:47:16;;;;;;;7.73;4.80;;;;;;;;;;5051797;28;20511;-87
2023/10/14 10:49:56;;;;;;;8.33;5.40;;;;;;;;;;5051910;28;20451;-87
2023/10/14 10:52:25;;;;;;;7.70;5.20;;;;;;;;;;5047433;28;20480;-87
2023/10/14 10:54:55;;;;;;;8.07;5.40;;;;;;;;;;5052497;28;20617;-86
2023/10/14 10:57:24;;;;;;;8.50;5.30;;;;;;;;;;5050034;28;20461;-87
2023/10/14 10:59:51;;;;;;;9.23;5.63;;;;;;;;;;5051591;28;20921;-87
2023/10/14 11:02:19;;;;;;;6.50;4.73;;;;;;;;;;5053727;28;20507;-87
2023/10/14 11:04:48;;;;;;;10.10;4.90;;;;;;;;;;5052629;28;20528;-87
2023/10/14 11:07:16;;;;;;;5.93;4.83;;;;;;;;;;5046261;28;20443;-87
2023/10/14 11:09:43;;;;;;;5.50;4.73;;;;;;;;;;5051803;28;20495;-88
2023/10/14 11:12:13;;;;;;;4.73;4.23;;;;;;;;;;5051118;28;20503;-87
2023/10/14 11:14:41;;;;;;;7.80;4.63;;;;;;;;;;5051754;28;20567;-87
2023/10/14 11:17:08;;;;;;;6.90;4.80;;;;;;;;;;5050914;28;20905;-88
2023/10/14 11:19:36;;;;;;;5.50;4.83;;;;;;;;;;5051368;28;20433;-87
2023/10/14 11:22:04;;;;;;;7.50;5.23;;;;;;;;;;5051284;28;20441;-88
2023/10/14 11:24:32;;;;;;;5.37;4.60;;;;;;;;;;5052034;28;20503;-87
2023/10/14 11:27:01;;;;;;;8.83;5.60;;;;;;;;;;5052042;28;20454;-87
2023/10/14 11:29:33;;;;;;;5.47;4.47;;;;;;;;;;5051754;28;20430;-87
2023/10/14 11:32:02;;;;;;;7.60;5.10;;;;;;;;;;5049523;28;20445;-87
2023/10/14 11:34:34;;;;;;;7.50;4.60;;;;;;;;;;5051260;28;20983;-87
2023/10/14 11:37:02;;;;;;;5.37;4.50;;;;;;;;;;5049603;28;20488;-87
2023/10/14 11:39:32;;;;;;;5.83;4.53;;;;;;;;;;5051811;28;20940;-87
2023/10/14 11:42:01;;;;;;;6.10;4.13;;;;;;;;;;5050055;28;20442;-87
2023/10/14 11:44:30;;;;;;;7.30;5.77;;;;;;;;;;5052326;28;20843;-87
2023/10/14 11:46:59;;;;;;;10.53;5.10;;;;;;;;;;5051762;28;20438;-87
2023/10/14 11:49:27;;;;;;;4.60;4.03;;;;;;;;;;5063602;28;20767;-87
2023/10/14 11:51:54;;;;;;;6.93;5.03;;;;;;;;;;5059288;28;20989;-87
2023/10/14 11:54:24;;;;;;;7.27;5.13;;;;;;;;;;5049936;28;20453;-87
2023/10/14 11:56:51;;;;;;;9.97;5.30;;;;;;;;;;5050049;28;20488;-87
2023/10/14 11:59:18;;;;;;;9.90;4.90;;;;;;;;;;5050224;28;20461;-87
2023/10/14 12:01:47;;;;;;;6.57;4.70;;;;;;;;;;5047291;28;20499;-87
2023/10/14 12:04:15;;;;;;;5.00;4.50;;;;;;;;;;5041300;28;20445;-87
2023/10/14 12:06:42;;;;;;;6.67;5.13;;;;;;;;;;5052182;28;20545;-87
2023/10/14 12:09:10;;;;;;;7.60;6.10;;;;;;;;;;5047196;28;20462;-86
2023/10/14 12:11:41;;;;;;;8.33;7.40;;;;;;;;;;5044519;28;20513;-87
2023/10/14 12:14:11;;;;;;;10.67;7.43;;;;;;;;;;5053587;28;20545;-87
2023/10/14 12:16:40;;;;;;;10.37;6.13;;;;;;;;;;5051317;28;20469;-87
2023/10/14 12:19:11;;;;;;;7.53;6.67;;;;;;;;;;5049190;28;20477;-87
2023/10/14 12:21:39;;;;;;;7.93;5.70;;;;;;;;;;5049871;28;20812;-86
2023/10/14 12:24:09;;;;;;;7.93;6.13;;;;;;;;;;5054835;28;20441;-87
2023/10/14 12:26:43;;;;;;;8.47;6.77;;;;;;;;;;5056662;28;20955;-87
2023/10/14 12:29:11;;;;;;;7.93;5.77;;;;;;;;;;5055779;28;20449;-87
2023/10/14 12:31:41;;;;;;;6.83;5.60;;;;;;;;;;5058396;28;20449;-87
2023/10/14 12:34:10;;;;;;;9.53;6.60;;;;;;;;;;5055443;28;20461;-87
2023/10/14 12:36:40;;;;;;;8.00;5.87;;;;;;;;;;5055149;28;20548;-87
2023/10/14 12:39:18;;;;;;;7.23;5.77;;;;;;;;;;5055760;28;21535;-87
2023/10/14 12:41:47;;;;;;;8.33;6.20;;;;;;;;;;5054706;28;20457;-87
2023/10/14 12:44:15;;;;;;;8.53;6.30;;;;;;;;;;5051839;28;20445;-87
2023/10/14 12:46:43;;;;;;;8.27;6.30;;;;;;;;;;5055176;28;20434;-87
2023/10/14 12:49:17;;;;;;;8.03;5.60;;;;;;;;;;5055004;28;20473;-87
2023/10/14 12:51:45;;;;;;;9.00;6.73;;;;;;;;;;5054649;28;20624;-87
2023/10/14 12:54:16;;;;;;;10.67;5.70;;;;;;;;;;5053451;28;20495;-87
2023/10/14 12:56:44;;;;;;;10.37;6.37;;;;;;;;;;5053389;28;20488;-87
2023/10/14 12:59:13;;;;;;;9.80;6.90;;;;;;;;;;5055016;28;20454;-87
2023/10/14 13:01:46;;;;;;;8.17;6.40;;;;;;;;;;5054757;28;20434;-87
2023/10/14 13:04:19;;;;;;;8.60;6.87;;;;;;;;;;5049282;28;20444;-87
2023/10/14 13:06:46;;;;;;;10.33;7.27;;;;;;;;;;5053866;28;20456;-87
2023/10/14 13:09:14;;;;;;;8.17;7.37;;;;;;;;;;5054031;28;21045;-87
2023/10/14 13:11:43;;;;;;;8.87;6.37;;;;;;;;;;5054929;28;20991;-87
2023/10/14 13:14:11;;;;;;;6.67;5.93;;;;;;;;;;5055151;28;20560;-88
2023/10/14 13:16:38;;;;;;;11.03;6.93;;;;;;;;;;5053899;28;20524;-87
2023/10/14 13:19:07;;;;;;;7.30;6.10;;;;;;;;;;5054420;28;20515;-87
2023/10/14 13:21:41;;;;;;;7.37;6.57;;;;;;;;;;5055383;28;20434;-87
2023/10/14 13:24:11;;;;;;;10.10;6.10;;;;;;;;;;5068411;28;20437;-87
2023/10/14 13:26:39;;;;;;;7.30;5.53;;;;;;;;;;5049184;28;20499;-87
2023/10/14 13:29:06;;;;;;;8.90;6.43;;;;;;;;;;5048846;28;20527;-87
2023/10/14 13:31:34;;;;;;;7.10;5.97;;;;;;;;;;5051658;28;20784;-87
2023/10/14 13:34:04;;;;;;;10.93;7.73;;;;;;;;;;5053824;28;20450;-87
2023/10/14 13:36:33;;;;;;;9.40;7.00;;;;;;;;;;5054316;28;20480;-87
2023/10/14 13:39:07;;;;;;;10.30;7.67;;;;;;;;;;5051843;28;20981;-87
2023/10/14 13:41:38;;;;;;;8.83;6.80;;;;;;;;;;5048536;28;20987;-87
2023/10/14 13:44:05;;;;;;;7.50;6.23;;;;;;;;;;5049389;28;20790;-87
2023/10/14 13:46:33;;;;;;;8.70;6.20;;;;;;;;;;5048580;28;20433;-87
2023/10/14 13:49:00;;;;;;;12.20;6.43;;;;;;;;;;5053591;28;20469;-87
2023/10/14 13:51:28;;;;;;;8.43;6.43;;;;;;;;;;5053289;28;20495;-88
2023/10/14 13:53:55;;;;;;;8.20;6.43;;;;;;;;;;5052117;28;20433;-87
2023/10/14 13:56:24;;;;;;;6.90;6.20;;;;;;;;;;5053841;28;20524;-87
2023/10/14 13:58:52;;;;;;;11.10;6.73;;;;;;;;;;5052218;28;20523;-87
2023/10/14 14:01:19;;;;;;;7.63;6.50;;;;;;;;;;5053956;28;20796;-87
2023/10/14 14:03:57;;;;;;;7.73;5.70;;;;;;;;;;5051542;28;20430;-87
2023/10/14 14:06:25;;;;;;;9.03;6.27;;;;;;;;;;5052952;28;20460;-87
2023/10/14 14:08:53;;;;;;;8.73;6.60;;;;;;;;;;5051658;28;20462;-87
2023/10/14 14:11:21;;;;;;;8.53;6.53;;;;;;;;;;5052236;28;20456;-87
2023/10/14 14:13:50;;;;;;;8.53;7.10;;;;;;;;;;5051962;28;20541;-87
2023/10/14 14:16:19;;;;;;;9.97;6.97;;;;;;;;;;5049921;28;20495;-87
2023/10/14 14:18:49;;;;;;;9.30;7.07;;;;;;;;;;5052939;28;20526;-87
2023/10/14 14:21:16;;;;;;;9.30;6.93;;;;;;;;;;5049421;28;20819;-87
2023/10/14 14:23:44;;;;;;;9.30;6.50;;;;;;;;;;5052262;28;20454;-87
2023/10/14 14:26:17;;;;;;;10.73;7.07;;;;;;;;;;5053448;28;20887;-87
2023/10/14 14:28:44;;;;;;;12.50;8.07;;;;;;;;;;5052857;28;20470;-87
2023/10/14 14:31:14;;;;;;;8.03;6.80;;;;;;;;;;5051484;28;20503;-88
2023/10/14 14:33:42;;;;;;;8.03;7.07;;;;;;;;;;5051730;28;20995;-87
2023/10/14 14:36:11;;;;;;;8.97;6.67;;;;;;;;;;5051578;28;21027;-87
2023/10/14 14:38:39;;;;;;;21.30;7.40;;;;;;;;;;5050902;28;20487;-87
2023/10/14 14:41:08;;;;;;;14.37;7.87;;;;;;;;;;5051930;28;20445;-87
2023/10/14 14:43:37;;;;;;;10.30;7.53;;;;;;;;;;5055327;28;20503;-87
2023/10/14 14:46:08;;;;;;;9.93;7.43;;;;;;;;;;5064329;28;20456;-87
2023/10/14 14:48:36;;;;;;;12.53;7.83;;;;;;;;;;5061854;28;20469;-87
2023/10/14 14:51:04;;;;;;;11.03;8.27;;;;;;;;;;5054572;28;20449;-87
2023/10/14 14:53:31;;;;;;;11.30;7.37;;;;;;;;;;5054039;28;20461;-87
2023/10/14 14:56:00;;;;;;;13.23;8.30;;;;;;;;;;5059852;28;20480;-88
2023/10/14 14:58:28;;;;;;;8.43;6.80;;;;;;;;;;5060659;28;20477;-89
2023/10/14 15:00:56;;;;;;;9.17;6.97;;;;;;;;;;5051323;28;20442;-89